createdAt,value
2019-04-13T00:01:28.169Z,8.77
2019-04-13T00:03:58.542Z,8.87
2019-04-13T00:06:35.781Z,8.43
2019-04-13T00:09:08.403Z,8.70
2019-04-13T00:11:50.869Z,7.13
2019-04-13T00:14:21.573Z,9.37
2019-04-13T00:16:52.145Z,9.13
2019-04-13T00:19:22.804Z,8.83
2019-04-13T00:21:53.187Z,8.27
2019-04-13T00:24:23.685Z,8.87
2019-04-13T00:26:54.141Z,9.57
2019-04-13T00:29:24.767Z,7.63
2019-04-13T00:31:55.403Z,10.47
2019-04-13T00:34:25.772Z,9.10
2019-04-13T00:36:56.101Z,9.97
2019-04-13T00:39:26.604Z,8.57
2019-04-13T00:41:57.101Z,8.60
2019-04-13T00:44:27.774Z,9.37
2019-04-13T00:46:58.372Z,9.50
2019-04-13T00:49:29.058Z,9.90
2019-04-13T00:51:59.481Z,10.47
2019-04-13T00:54:30.061Z,9.37
2019-04-13T00:57:00.387Z,9.87
2019-04-13T00:59:30.934Z,10.63
2019-04-13T01:02:01.565Z,9.93
2019-04-13T01:04:32.093Z,10.27
2019-04-13T01:07:02.640Z,10.27
2019-04-13T01:09:33.234Z,10.00
2019-04-13T01:12:03.860Z,9.60
2019-04-13T01:14:34.515Z,9.63
2019-04-13T01:17:05.129Z,10.07
2019-04-13T01:19:35.600Z,10.77
2019-04-13T01:22:06.101Z,10.20
2019-04-13T01:24:36.945Z,10.40
2019-04-13T01:27:07.484Z,10.27
2019-04-13T01:29:38.017Z,10.47
2019-04-13T01:32:08.986Z,8.93
2019-04-13T01:34:39.577Z,10.57
2019-04-13T01:37:10.169Z,10.30
2019-04-13T01:39:40.629Z,9.73
2019-04-13T01:42:10.949Z,9.53
2019-04-13T01:44:41.476Z,10.37
2019-04-13T01:47:11.987Z,10.67
2019-04-13T01:49:42.458Z,9.93
2019-04-13T01:52:13.062Z,9.23
2019-04-13T01:54:44.337Z,9.80
2019-04-13T01:57:14.920Z,9.97
2019-04-13T01:59:45.377Z,8.23
2019-04-13T02:02:29.922Z,9.40
2019-04-13T02:05:39.550Z,9.13
2019-04-13T02:08:15.038Z,9.20
2019-04-13T02:10:47.462Z,8.57
2019-04-13T02:13:17.996Z,8.43
2019-04-13T02:15:48.645Z,10.27
2019-04-13T02:18:19.258Z,8.47
2019-04-13T02:20:49.743Z,8.43
2019-04-13T02:23:20.226Z,9.50
2019-04-13T02:25:50.775Z,9.67
2019-04-13T02:28:21.208Z,9.83
2019-04-13T02:30:51.857Z,8.93
2019-04-13T02:33:22.462Z,9.70
2019-04-13T02:35:53.113Z,10.47
2019-04-13T02:38:23.814Z,8.97
2019-04-13T02:40:54.383Z,8.40
2019-04-13T02:43:24.957Z,9.20
2019-04-13T02:45:55.513Z,9.57
2019-04-13T02:48:25.890Z,9.20
2019-04-13T02:50:56.286Z,9.90
2019-04-13T02:53:26.654Z,8.87
2019-04-13T02:55:57.542Z,9.20
2019-04-13T02:58:28.133Z,9.73
2019-04-13T03:00:58.789Z,10.10
2019-04-13T03:03:29.391Z,10.73
2019-04-13T03:05:59.840Z,9.37
2019-04-13T03:08:30.245Z,9.73
2019-04-13T03:11:00.829Z,8.83
2019-04-13T03:13:31.321Z,8.80
2019-04-13T03:16:06.952Z,9.30
2019-04-13T03:18:42.704Z,9.23
2019-04-13T03:21:13.297Z,8.83
2019-04-13T03:23:43.881Z,7.67
2019-04-13T03:26:14.495Z,9.50
2019-04-13T03:28:44.993Z,9.50
2019-04-13T03:31:15.583Z,6.70
2019-04-13T03:33:46.097Z,9.63
2019-04-13T03:36:16.756Z,8.10
2019-04-13T03:38:47.145Z,7.33
2019-04-13T03:41:17.717Z,8.90
2019-04-13T03:43:48.289Z,7.83
2019-04-13T03:46:18.945Z,8.67
2019-04-13T03:48:50.271Z,8.83
2019-04-13T03:51:20.925Z,8.33
2019-04-13T03:53:51.538Z,9.57
2019-04-13T03:56:22.202Z,8.83
2019-04-13T03:58:52.801Z,8.80
2019-04-13T04:01:23.665Z,9.00
2019-04-13T04:03:54.187Z,8.13
2019-04-13T04:06:24.854Z,9.23
2019-04-13T04:08:55.327Z,9.37
2019-04-13T04:11:25.774Z,8.30
2019-04-13T04:13:56.202Z,9.00
2019-04-13T04:16:26.798Z,8.53
2019-04-13T04:18:56.623Z,9.47
2019-04-13T04:21:27.367Z,9.40
2019-04-13T04:23:58.003Z,8.07
2019-04-13T04:26:28.669Z,9.53
2019-04-13T04:28:59.271Z,10.90
2019-04-13T04:31:29.951Z,10.30
2019-04-13T04:34:00.458Z,7.83
2019-04-13T04:36:30.914Z,9.50
2019-04-13T04:39:01.378Z,8.00
2019-04-13T04:41:31.893Z,9.43
2019-04-13T04:44:02.443Z,8.93
2019-04-13T04:46:32.890Z,9.43
2019-04-13T04:49:03.421Z,8.80
2019-04-13T04:51:33.903Z,8.47
2019-04-13T04:54:04.783Z,7.93
2019-04-13T04:56:35.348Z,8.60
2019-04-13T04:59:05.923Z,8.77
2019-04-13T05:01:36.585Z,9.13
2019-04-13T05:04:06.854Z,9.33
2019-04-13T05:06:37.784Z,9.63
2019-04-13T05:09:07.504Z,9.63
2019-04-13T05:11:38.366Z,8.50
2019-04-13T05:14:08.861Z,9.40
2019-04-13T05:16:39.338Z,9.83
2019-04-13T05:19:09.969Z,10.67
2019-04-13T05:21:40.510Z,9.77
2019-04-13T05:24:11.009Z,9.67
2019-04-13T05:26:41.402Z,10.30
2019-04-13T05:29:11.860Z,7.87
2019-04-13T05:31:42.405Z,9.67
2019-04-13T05:34:13.037Z,10.30
2019-04-13T05:36:47.888Z,10.30
2019-04-13T05:39:14.405Z,9.77
2019-04-13T05:41:44.881Z,10.07
2019-04-13T05:44:15.335Z,10.60
2019-04-13T05:46:45.917Z,9.77
2019-04-13T05:49:16.498Z,10.40
2019-04-13T05:51:47.177Z,10.27
2019-04-13T05:54:17.776Z,10.60
2019-04-13T05:56:48.364Z,10.50
2019-04-13T05:59:21.150Z,9.23
2019-04-13T06:01:49.451Z,11.50
2019-04-13T06:04:20.083Z,11.43
2019-04-13T06:06:59.774Z,9.93
2019-04-13T06:09:22.082Z,9.93
2019-04-13T06:11:52.557Z,10.33
2019-04-13T06:14:23.011Z,9.80
2019-04-13T06:16:53.677Z,10.70
2019-04-13T06:19:24.073Z,10.27
2019-04-13T06:21:54.553Z,9.27
2019-04-13T06:24:25.030Z,10.80
2019-04-13T06:26:56.427Z,11.27
2019-04-13T06:29:26.865Z,11.60
2019-04-13T06:32:07.368Z,10.50
2019-04-13T06:34:50.800Z,16.67
2019-04-13T06:37:21.229Z,11.33
2019-04-13T06:39:51.625Z,10.63
2019-04-13T06:42:21.421Z,10.27
2019-04-13T06:44:51.793Z,12.50
2019-04-13T06:47:22.242Z,30.97
2019-04-13T06:49:52.613Z,16.07
2019-04-13T06:52:23.505Z,16.43
2019-04-13T06:54:54.004Z,17.33
2019-04-13T06:57:25.987Z,14.50
2019-04-13T06:59:54.914Z,15.07
2019-04-13T07:02:25.417Z,10.90
2019-04-13T07:04:56.533Z,12.00
2019-04-13T07:07:45.146Z,12.30
2019-04-13T07:10:13.461Z,10.83
2019-04-13T07:12:48.733Z,10.23
2019-04-13T07:15:19.313Z,11.83
2019-04-13T07:17:49.774Z,14.27
2019-04-13T07:20:20.261Z,16.50
2019-04-13T07:22:53.807Z,11.47
2019-04-13T07:25:21.314Z,11.10
2019-04-13T07:27:51.136Z,10.10
2019-04-13T07:30:21.553Z,10.30
2019-04-13T07:32:51.356Z,10.10
2019-04-13T07:35:21.598Z,10.30
2019-04-13T07:37:52.178Z,10.33
2019-04-13T07:40:22.648Z,10.63
2019-04-13T07:42:53.148Z,10.40
2019-04-13T07:45:59.061Z,11.03
2019-04-13T07:48:41.672Z,10.33
2019-04-13T07:51:16.094Z,10.60
2019-04-13T07:53:46.951Z,11.77
2019-04-13T07:56:17.413Z,10.07
2019-04-13T07:58:47.976Z,10.20
2019-04-13T08:01:18.497Z,10.93
2019-04-13T08:03:48.945Z,11.13
2019-04-13T08:06:19.469Z,11.73
2019-04-13T08:08:50.226Z,11.47
2019-04-13T08:11:20.661Z,9.83
2019-04-13T08:13:51.173Z,9.57
2019-04-13T08:16:24.830Z,10.27
2019-04-13T08:19:03.481Z,15.20
2019-04-13T08:21:34.407Z,10.10
2019-04-13T08:24:04.805Z,10.60
2019-04-13T08:26:34.568Z,10.47
2019-04-13T08:29:05.085Z,10.17
2019-04-13T08:31:35.521Z,13.93
2019-04-13T08:34:06.466Z,10.40
2019-04-13T08:39:14.407Z,9.07
2019-04-13T08:41:42.841Z,9.83
2019-04-13T08:44:13.330Z,10.83
2019-04-13T08:46:43.769Z,14.07
2019-04-13T08:49:13.577Z,11.17
2019-04-13T08:51:43.938Z,12.97
2019-04-13T08:54:14.932Z,11.73
2019-04-13T08:56:45.635Z,11.13
2019-04-13T08:59:16.148Z,11.13
2019-04-13T09:01:46.658Z,11.60
2019-04-13T09:04:17.226Z,10.80
2019-04-13T09:06:47.596Z,9.83
2019-04-13T09:09:17.418Z,10.93
2019-04-13T09:11:47.829Z,11.27
2019-04-13T09:14:18.624Z,10.90
2019-04-13T09:16:49.354Z,11.00
2019-04-13T09:19:55.176Z,11.10
2019-04-13T09:22:26.842Z,11.80
2019-04-13T09:24:55.527Z,11.77
2019-04-13T09:27:25.921Z,10.03
2019-04-13T09:29:56.431Z,10.93
2019-04-13T09:32:28.175Z,10.60
2019-04-13T09:34:57.441Z,11.00
2019-04-13T09:37:27.817Z,13.87
2019-04-13T09:39:58.317Z,28.67
2019-04-13T09:42:28.818Z,12.37
2019-04-13T09:45:03.492Z,13.47
2019-04-13T09:47:29.672Z,13.23
2019-04-13T09:50:00.275Z,14.87
2019-04-13T09:52:31.544Z,16.20
2019-04-13T09:55:01.884Z,9.20
2019-04-13T09:57:32.374Z,10.10
2019-04-13T10:00:02.200Z,9.03
2019-04-13T10:02:32.621Z,8.80
2019-04-13T10:05:03.184Z,9.47
2019-04-13T10:07:33.957Z,11.53
2019-04-13T10:10:04.000Z,11.10
2019-04-13T10:13:40.189Z,9.40
2019-04-13T10:16:45.535Z,9.00
2019-04-13T10:19:16.053Z,7.47
2019-04-13T10:21:47.046Z,7.93
2019-04-13T10:24:17.314Z,6.43
2019-04-13T10:26:48.549Z,10.00
2019-04-13T10:29:19.343Z,9.63
2019-04-13T10:31:48.829Z,9.27
2019-04-13T10:34:19.339Z,8.30
2019-04-13T10:36:49.784Z,5.80
2019-04-13T10:39:20.446Z,8.67
2019-04-13T10:41:53.125Z,9.80
2019-04-13T10:44:21.397Z,10.13
2019-04-13T10:46:56.794Z,10.03
2019-04-13T10:49:34.744Z,6.83
2019-04-13T10:52:05.831Z,8.87
2019-04-13T10:54:36.241Z,12.13
2019-04-13T10:57:08.361Z,10.73
2019-04-13T10:59:38.829Z,9.60
2019-04-13T11:02:09.437Z,12.03
2019-04-13T11:04:39.880Z,12.03
2019-04-13T11:07:10.242Z,9.00
2019-04-13T11:09:40.745Z,11.00
2019-04-13T11:12:11.254Z,15.37
2019-04-13T11:14:41.821Z,15.10
2019-04-13T11:17:12.754Z,9.47
2019-04-13T11:19:43.192Z,13.60
2019-04-13T11:22:13.753Z,25.43
2019-04-13T11:24:44.225Z,10.10
2019-04-13T11:27:14.677Z,12.40
2019-04-13T11:29:45.103Z,12.03
2019-04-13T11:32:15.672Z,13.20
2019-04-13T11:34:46.233Z,10.47
2019-04-13T11:37:16.537Z,9.57
2019-04-13T11:39:47.000Z,17.03
2019-04-13T11:43:21.952Z,17.63
2019-04-13T11:45:58.633Z,25.47
2019-04-13T11:48:37.380Z,18.43
2019-04-13T11:51:11.677Z,15.73
2019-04-13T11:53:42.399Z,14.30
2019-04-13T11:56:13.234Z,21.23
2019-04-13T11:58:44.489Z,22.07
2019-04-13T12:01:53.715Z,24.20
2019-04-13T12:05:32.955Z,13.23
2019-04-13T12:08:05.661Z,15.10
2019-04-13T12:11:38.729Z,16.37
2019-04-13T12:14:13.354Z,13.70
2019-04-13T12:16:48.562Z,13.07
2019-04-13T12:19:26.268Z,12.93
2019-04-13T12:22:02.110Z,13.50
2019-04-13T12:24:33.244Z,25.57
2019-04-13T12:27:03.875Z,15.67
2019-04-13T12:29:36.266Z,19.10
2019-04-13T12:32:04.227Z,14.60
2019-04-13T12:34:34.585Z,17.53
2019-04-13T12:37:05.182Z,17.07
2019-04-13T12:39:39.350Z,16.63
2019-04-13T12:42:06.370Z,20.27
2019-04-13T12:44:38.153Z,18.10
2019-04-13T12:47:09.908Z,18.13
2019-04-13T12:49:38.241Z,18.17
2019-04-13T12:52:07.943Z,17.30
2019-04-13T12:54:38.127Z,21.93
2019-04-13T12:57:08.754Z,19.30
2019-04-13T12:59:40.767Z,21.20
2019-04-13T13:02:41.633Z,21.47
2019-04-13T13:05:14.243Z,20.23
2019-04-13T13:07:44.744Z,18.17
2019-04-13T13:10:15.844Z,17.27
2019-04-13T13:12:46.462Z,21.77
2019-04-13T13:15:16.401Z,21.33
2019-04-13T13:17:46.905Z,28.37
2019-04-13T13:20:17.690Z,20.53
2019-04-13T13:22:48.131Z,35.83
2019-04-13T13:25:21.293Z,18.63
2019-04-13T13:27:49.205Z,24.60
2019-04-13T13:30:20.648Z,23.47
2019-04-13T13:32:49.514Z,17.63
2019-04-13T13:35:19.957Z,24.33
2019-04-13T13:37:50.795Z,23.83
2019-04-13T13:40:31.224Z,19.73
2019-04-13T13:42:52.552Z,19.37
2019-04-13T13:45:26.008Z,13.07
2019-04-13T13:47:53.757Z,14.13
2019-04-13T13:50:24.217Z,20.80
2019-04-13T13:52:54.966Z,26.37
2019-04-13T13:55:25.459Z,20.20
2019-04-13T13:58:02.396Z,16.67
2019-04-13T14:00:38.861Z,17.23
2019-04-13T14:03:10.230Z,16.73
2019-04-13T14:05:40.222Z,16.10
2019-04-13T14:08:10.749Z,14.73
2019-04-13T14:10:43.203Z,15.67
2019-04-13T14:13:12.333Z,17.67
2019-04-13T14:15:43.049Z,13.17
2019-04-13T14:18:13.705Z,14.93
2019-04-13T14:20:44.413Z,15.33
2019-04-13T14:23:15.073Z,10.27
2019-04-13T14:25:47.525Z,14.13
2019-04-13T14:28:16.659Z,12.97
2019-04-13T14:30:47.459Z,14.13
2019-04-13T14:33:18.250Z,16.60
2019-04-13T14:35:48.824Z,11.10
2019-04-13T14:38:22.847Z,12.07
2019-04-13T14:40:55.853Z,16.30
2019-04-13T14:43:25.108Z,14.57
2019-04-13T14:45:56.508Z,17.57
2019-04-13T14:48:26.216Z,17.37
2019-04-13T14:50:56.691Z,18.33
2019-04-13T14:53:27.124Z,17.00
2019-04-13T14:55:58.122Z,16.97
2019-04-13T14:58:28.437Z,19.03
2019-04-13T15:00:59.023Z,20.03
2019-04-13T15:03:29.577Z,16.97
2019-04-13T15:06:00.094Z,18.63
2019-04-13T15:08:30.517Z,21.73
2019-04-13T15:11:15.993Z,26.97
2019-04-13T15:13:31.758Z,25.87
2019-04-13T15:16:04.739Z,21.80
2019-04-13T15:18:44.652Z,13.23
2019-04-13T15:21:13.309Z,17.90
2019-04-13T15:23:44.553Z,15.70
2019-04-13T15:26:14.750Z,16.60
2019-04-13T15:37:17.453Z,12.47
2019-04-13T15:39:49.673Z,16.23
2019-04-13T15:42:22.713Z,14.37
2019-04-13T15:44:52.180Z,11.23
2019-04-13T15:47:23.887Z,10.17
2019-04-13T15:49:50.790Z,11.63
2019-04-13T15:52:22.192Z,11.90
2019-04-13T15:54:53.583Z,9.47
2019-04-13T15:57:24.225Z,10.77
2019-04-13T15:59:54.064Z,9.10
2019-04-13T16:02:24.992Z,11.73
2019-04-13T16:04:55.956Z,8.40
2019-04-13T16:07:25.781Z,12.27
2019-04-13T16:10:04.605Z,14.27
2019-04-13T16:12:40.582Z,13.47
2019-04-13T16:15:12.088Z,13.20
2019-04-13T16:17:42.270Z,10.87
2019-04-13T16:20:11.925Z,16.80
2019-04-13T16:22:42.938Z,31.47
2019-04-13T16:25:12.794Z,15.03
2019-04-13T16:27:48.795Z,15.50
2019-04-13T16:30:24.012Z,13.50
2019-04-13T16:32:59.905Z,19.73
2019-04-13T16:35:37.027Z,11.07
2019-04-13T16:38:07.651Z,10.20
2019-04-13T16:40:39.289Z,9.63
2019-04-13T16:43:08.858Z,8.70
2019-04-13T16:45:48.530Z,9.97
2019-04-13T16:48:23.730Z,12.40
2019-04-13T16:51:58.229Z,15.27
2019-04-13T16:54:47.487Z,14.53
2019-04-13T16:57:13.294Z,13.80
2019-04-13T16:59:49.490Z,17.23
2019-04-13T17:02:31.988Z,11.97
2019-04-13T17:05:05.726Z,11.73
2019-04-13T17:07:36.475Z,12.90
2019-04-13T17:10:08.684Z,12.73
2019-04-13T17:12:41.662Z,18.40
2019-04-13T17:15:08.974Z,14.47
2019-04-13T17:17:40.542Z,13.37
2019-04-13T17:20:16.271Z,14.20
2019-04-13T17:22:52.013Z,10.47
2019-04-13T17:25:28.558Z,11.03
2019-04-13T17:28:10.947Z,37.13
2019-04-13T17:30:43.241Z,15.83
2019-04-13T17:33:15.407Z,11.47
2019-04-13T17:35:48.464Z,10.83
2019-04-13T17:38:18.460Z,10.93
2019-04-13T17:40:51.408Z,25.73
2019-04-13T17:43:28.713Z,19.70
2019-04-13T17:48:05.365Z,17.00
2019-04-13T17:50:40.884Z,15.53
2019-04-13T17:53:16.270Z,21.47
2019-04-13T17:56:05.215Z,11.40
2019-04-13T17:59:40.725Z,14.37
2019-04-13T18:02:17.590Z,12.93
2019-04-13T18:05:52.145Z,13.63
2019-04-13T18:08:36.772Z,15.47
2019-04-13T18:11:13.116Z,14.83
2019-04-13T18:14:07.158Z,12.67
2019-04-13T18:16:42.184Z,16.00
2019-04-13T18:19:14.808Z,16.13
2019-04-13T18:21:45.273Z,16.30
2019-04-13T18:24:15.584Z,14.93
2019-04-13T18:26:45.792Z,15.87
2019-04-13T18:29:17.401Z,16.73
2019-04-13T18:31:48.261Z,16.27
2019-04-13T18:34:18.451Z,17.03
2019-04-13T18:36:48.690Z,16.43
2019-04-13T18:39:19.143Z,16.90
2019-04-13T18:41:50.553Z,17.63
2019-04-13T18:44:19.544Z,18.03
2019-04-13T18:46:50.013Z,22.43
2019-04-13T18:49:20.765Z,23.30
2019-04-13T18:51:51.357Z,27.20
2019-04-13T18:54:22.270Z,36.43
2019-04-13T18:56:52.725Z,30.23
2019-04-13T18:59:23.699Z,20.67
2019-04-13T19:01:53.905Z,29.53
2019-04-13T19:04:24.502Z,16.03
2019-04-13T19:06:54.838Z,21.73
2019-04-13T19:09:25.401Z,19.53
2019-04-13T19:11:55.998Z,19.07
2019-04-13T19:14:26.449Z,19.10
2019-04-13T19:16:56.957Z,19.17
2019-04-13T19:19:27.866Z,19.03
2019-04-13T19:21:58.524Z,17.37
2019-04-13T19:24:28.998Z,17.30
2019-04-13T19:26:59.904Z,16.30
2019-04-13T19:29:30.541Z,17.03
2019-04-13T19:32:01.179Z,16.67
2019-04-13T19:34:31.753Z,15.23
2019-04-13T19:37:02.208Z,16.53
2019-04-13T19:39:32.805Z,14.67
2019-04-13T19:42:02.550Z,16.77
2019-04-13T19:44:33.025Z,16.27
2019-04-13T19:47:03.613Z,15.67
2019-04-13T19:49:34.166Z,14.77
2019-04-13T19:52:09.889Z,16.67
2019-04-13T19:54:40.785Z,15.37
2019-04-13T19:57:10.432Z,16.53
2019-04-13T19:59:40.909Z,14.33
2019-04-13T20:02:11.553Z,12.00
2019-04-13T20:04:42.253Z,12.70
2019-04-13T20:07:12.673Z,12.53
2019-04-13T20:09:43.334Z,27.63
2019-04-13T20:12:13.838Z,18.63
2019-04-13T20:14:45.703Z,12.23
2019-04-13T20:17:14.989Z,13.37
2019-04-13T20:19:46.108Z,12.60
2019-04-13T20:22:16.646Z,13.37
2019-04-13T20:24:47.098Z,12.83
2019-04-13T20:27:17.803Z,13.60
2019-04-13T20:29:49.139Z,13.30
2019-04-13T20:32:19.170Z,13.07
2019-04-13T20:34:50.885Z,14.23
2019-04-13T20:37:20.913Z,28.70
2019-04-13T20:39:55.304Z,27.83
2019-04-13T20:42:26.835Z,28.53
2019-04-13T20:44:56.683Z,41.57
2019-04-13T20:47:26.642Z,27.57
2019-04-13T20:49:58.118Z,23.23
2019-04-13T20:52:28.710Z,19.63
2019-04-13T20:54:58.441Z,18.13
2019-04-13T20:57:30.275Z,28.63
2019-04-13T21:00:00.748Z,16.57
2019-04-13T21:02:30.924Z,26.37
2019-04-13T21:05:01.412Z,20.33
2019-04-13T21:07:33.443Z,17.40
2019-04-13T21:10:03.141Z,16.83
2019-04-13T21:12:33.742Z,15.90
2019-04-13T21:15:03.653Z,17.30
2019-04-13T21:17:35.317Z,16.53
2019-04-13T21:20:05.556Z,17.73
2019-04-13T21:22:35.937Z,17.37
2019-04-13T21:25:07.664Z,17.60
2019-04-13T21:27:37.766Z,17.57
2019-04-13T21:30:08.216Z,19.63
2019-04-13T21:32:39.853Z,16.40
2019-04-13T21:35:10.010Z,21.03
2019-04-13T21:37:39.924Z,21.93
2019-04-13T21:40:10.501Z,17.63
2019-04-13T21:42:42.350Z,18.20
2019-04-13T21:45:12.477Z,23.50
2019-04-13T21:47:42.695Z,23.10
2019-04-13T21:50:19.426Z,32.83
2019-04-13T21:53:04.916Z,31.60
2019-04-13T21:55:37.700Z,34.43
2019-04-13T21:58:16.394Z,40.83
2019-04-13T22:00:57.468Z,25.67
2019-04-13T22:03:27.657Z,29.10
2019-04-13T22:05:59.427Z,31.13
2019-04-13T22:08:29.513Z,25.80
2019-04-13T22:10:59.916Z,37.57
2019-04-13T22:13:31.720Z,26.83
2019-04-13T22:16:01.697Z,45.07
2019-04-13T22:18:32.229Z,94.43
2019-04-13T22:21:02.674Z,71.60
2019-04-13T22:23:34.517Z,23.57
2019-04-13T22:26:04.560Z,22.13
2019-04-13T22:28:39.612Z,28.03
2019-04-13T22:31:22.023Z,29.97
2019-04-13T22:33:52.438Z,25.57
2019-04-13T22:36:27.333Z,24.73
2019-04-13T22:38:58.753Z,26.43
2019-04-13T22:41:28.861Z,33.80
2019-04-13T22:43:59.029Z,24.33
2019-04-13T22:46:30.314Z,26.60
2019-04-13T22:49:05.965Z,28.13
2019-04-13T22:52:12.754Z,29.70
2019-04-13T22:54:51.648Z,28.17
2019-04-13T22:57:25.837Z,31.20
2019-04-13T22:59:56.051Z,52.50
2019-04-13T23:02:32.012Z,58.27
2019-04-13T23:05:02.574Z,38.20
2019-04-13T23:07:32.780Z,33.73
2019-04-13T23:10:03.397Z,28.87
2019-04-13T23:12:33.942Z,29.10
2019-04-13T23:15:14.094Z,31.83
2019-04-13T23:17:35.505Z,26.93
2019-04-13T23:20:06.438Z,28.27
2019-04-13T23:22:37.158Z,24.63
2019-04-13T23:25:07.784Z,29.47
2019-04-13T23:27:39.350Z,27.30
2019-04-13T23:30:09.490Z,28.13
2019-04-13T23:32:40.168Z,26.03
2019-04-13T23:35:10.535Z,23.53
2019-04-13T23:37:41.203Z,25.87
2019-04-13T23:40:11.677Z,24.50
2019-04-13T23:42:42.253Z,27.50
2019-04-13T23:45:19.423Z,29.17
2019-04-13T23:47:44.715Z,29.77
2019-04-13T23:50:14.125Z,24.33
2019-04-13T23:52:45.796Z,33.73
2019-04-13T23:55:16.154Z,28.03
2019-04-13T23:57:55.351Z,26.60
